createdAt,value
2022-12-03T00:00:12.597Z,35.80
2022-12-03T00:02:39.941Z,31.70
2022-12-03T00:05:06.819Z,31.70
2022-12-03T00:07:33.421Z,36.28
2022-12-03T00:10:00.024Z,35.35
2022-12-03T00:12:26.593Z,37.95
2022-12-03T00:14:53.426Z,36.97
2022-12-03T00:17:20.142Z,35.47
2022-12-03T00:19:46.760Z,35.97
2022-12-03T00:22:13.506Z,37.28
2022-12-03T00:24:40.091Z,38.22
2022-12-03T00:27:06.715Z,34.63
2022-12-03T00:29:33.362Z,33.45
2022-12-03T00:31:59.975Z,36.72
2022-12-03T00:34:26.584Z,34.88
2022-12-03T00:36:53.138Z,36.38
2022-12-03T00:39:19.754Z,34.95
2022-12-03T00:41:46.381Z,31.83
2022-12-03T00:44:12.991Z,35.17
2022-12-03T00:46:39.636Z,37.45
2022-12-03T00:49:06.631Z,39.33
2022-12-03T00:51:35.889Z,36.50
2022-12-03T00:54:02.601Z,33.92
2022-12-03T00:56:29.162Z,36.10
2022-12-03T00:58:55.779Z,35.03
2022-12-03T01:01:22.393Z,35.92
2022-12-03T01:03:49.060Z,31.00
2022-12-03T01:06:15.639Z,38.47
2022-12-03T01:08:42.204Z,34.58
2022-12-03T01:11:28.799Z,36.33
2022-12-03T01:13:55.461Z,34.20
2022-12-03T01:16:22.101Z,38.60
2022-12-03T01:18:48.824Z,39.58
2022-12-03T01:21:15.427Z,38.05
2022-12-03T01:23:42.020Z,36.20
2022-12-03T01:26:08.600Z,37.63
2022-12-03T01:28:35.256Z,36.67
2022-12-03T01:31:20.884Z,37.88
2022-12-03T01:33:47.540Z,35.03
2022-12-03T01:36:14.204Z,34.78
2022-12-03T01:38:40.809Z,34.22
2022-12-03T01:41:11.750Z,35.15
2022-12-03T01:43:38.780Z,33.10
2022-12-03T01:46:05.619Z,32.55
2022-12-03T01:48:35.383Z,34.17
2022-12-03T01:51:02.034Z,34.10
2022-12-03T01:53:28.655Z,33.17
2022-12-03T01:55:55.491Z,33.40
2022-12-03T01:58:26.527Z,29.90
2022-12-03T02:00:53.684Z,32.15
2022-12-03T02:03:24.959Z,31.55
2022-12-03T02:05:51.993Z,31.33
2022-12-03T02:08:27.841Z,31.35
2022-12-03T02:10:54.591Z,30.52
2022-12-03T02:13:21.413Z,31.73
2022-12-03T02:15:48.139Z,32.42
2022-12-03T02:18:14.873Z,29.80
2022-12-03T02:20:51.944Z,32.35
2022-12-03T02:23:36.268Z,32.70
2022-12-03T02:26:02.950Z,33.45
2022-12-03T02:28:29.645Z,33.00
2022-12-03T02:30:56.209Z,32.38
2022-12-03T02:33:22.775Z,33.35
2022-12-03T02:35:49.367Z,33.97
2022-12-03T02:38:21.681Z,30.75
2022-12-03T02:40:50.192Z,33.22
2022-12-03T02:43:17.642Z,30.42
2022-12-03T02:45:46.704Z,29.75
2022-12-03T02:48:26.145Z,34.50
2022-12-03T02:50:55.746Z,31.77
2022-12-03T02:53:26.173Z,33.22
2022-12-03T02:55:53.325Z,35.60
2022-12-03T02:58:20.764Z,35.55
2022-12-03T03:00:49.343Z,30.63
2022-12-03T03:03:16.822Z,34.65
2022-12-03T03:05:44.140Z,32.13
2022-12-03T03:08:11.759Z,31.45
2022-12-03T03:10:39.769Z,31.13
2022-12-03T03:13:11.165Z,34.50
2022-12-03T03:15:39.184Z,32.47
2022-12-03T03:18:07.073Z,33.10
2022-12-03T03:20:33.666Z,31.27
2022-12-03T03:23:12.556Z,30.75
2022-12-03T03:25:40.730Z,33.50
2022-12-03T03:28:07.621Z,34.40
2022-12-03T03:30:35.366Z,28.48
2022-12-03T03:33:02.153Z,29.42
2022-12-03T03:35:28.737Z,34.60
2022-12-03T03:37:56.234Z,31.75
2022-12-03T03:40:22.863Z,35.75
2022-12-03T03:42:49.465Z,31.77
2022-12-03T03:45:16.586Z,34.22
2022-12-03T03:47:43.169Z,33.25
2022-12-03T03:50:11.098Z,30.92
2022-12-03T03:52:38.181Z,35.63
2022-12-03T03:55:05.875Z,31.48
2022-12-03T03:57:32.842Z,32.38
2022-12-03T03:59:59.950Z,33.90
2022-12-03T04:02:27.424Z,31.08
2022-12-03T04:04:54.487Z,35.70
2022-12-03T04:07:21.273Z,32.83
2022-12-03T04:09:47.907Z,32.75
2022-12-03T04:12:33.296Z,34.83
2022-12-03T04:15:00.119Z,33.88
2022-12-03T04:17:26.943Z,31.45
2022-12-03T04:19:53.524Z,29.92
2022-12-03T04:22:39.446Z,35.65
2022-12-03T04:25:25.685Z,34.42
2022-12-03T04:28:11.879Z,33.38
2022-12-03T04:30:38.557Z,29.40
2022-12-03T04:33:23.807Z,33.65
2022-12-03T04:35:50.441Z,31.52
2022-12-03T04:38:17.441Z,32.92
2022-12-03T04:41:02.035Z,32.03
2022-12-03T04:43:28.928Z,32.58
2022-12-03T04:45:55.572Z,32.28
2022-12-03T04:48:22.216Z,32.40
2022-12-03T04:50:48.862Z,31.33
2022-12-03T04:53:15.529Z,33.22
2022-12-03T04:55:42.286Z,30.30
2022-12-03T04:58:09.498Z,31.83
2022-12-03T05:00:36.025Z,29.55
2022-12-03T05:03:02.709Z,29.67
2022-12-03T05:05:29.421Z,31.17
2022-12-03T05:07:56.008Z,29.42
2022-12-03T05:10:22.671Z,39.00
2022-12-03T05:12:49.287Z,33.17
2022-12-03T05:15:15.883Z,31.65
2022-12-03T05:17:42.464Z,29.73
2022-12-03T05:20:28.509Z,31.10
2022-12-03T05:22:55.191Z,31.83
2022-12-03T05:25:21.742Z,29.65
2022-12-03T05:27:48.288Z,35.17
2022-12-03T05:30:15.100Z,33.63
2022-12-03T05:32:41.692Z,32.67
2022-12-03T05:35:09.735Z,32.75
2022-12-03T05:37:36.337Z,31.65
2022-12-03T05:40:03.767Z,31.23
2022-12-03T05:42:48.901Z,33.50
2022-12-03T05:45:15.598Z,39.92
2022-12-03T05:47:42.178Z,33.47
2022-12-03T05:50:08.795Z,35.38
2022-12-03T05:52:35.394Z,34.53
2022-12-03T05:55:02.000Z,34.45
2022-12-03T05:57:28.777Z,35.83
2022-12-03T05:59:55.356Z,37.58
2022-12-03T06:02:22.088Z,35.75
2022-12-03T06:04:48.872Z,33.95
2022-12-03T06:07:15.447Z,33.92
2022-12-03T06:09:42.030Z,38.78
2022-12-03T06:12:11.414Z,35.15
2022-12-03T06:14:37.983Z,36.97
2022-12-03T06:17:05.050Z,40.22
2022-12-03T06:19:31.626Z,40.35
2022-12-03T06:21:58.262Z,37.88
2022-12-03T06:24:24.855Z,36.70
2022-12-03T06:26:51.408Z,34.03
2022-12-03T06:29:18.010Z,37.55
2022-12-03T06:31:44.649Z,36.42
2022-12-03T06:34:11.258Z,35.03
2022-12-03T06:36:37.843Z,38.75
2022-12-03T06:39:04.601Z,35.50
2022-12-03T06:41:31.239Z,37.58
2022-12-03T06:43:57.821Z,33.67
2022-12-03T06:46:24.471Z,34.88
2022-12-03T06:48:51.092Z,39.05
2022-12-03T06:51:17.669Z,32.53
2022-12-03T06:53:44.227Z,37.15
2022-12-03T06:56:10.901Z,38.13
2022-12-03T06:58:37.524Z,38.92
2022-12-03T07:01:04.105Z,42.72
2022-12-03T07:03:30.675Z,41.47
2022-12-03T07:05:57.271Z,40.40
2022-12-03T07:08:23.902Z,44.03
2022-12-03T07:10:50.545Z,47.17
2022-12-03T07:13:17.150Z,48.40
2022-12-03T07:15:43.728Z,55.00
2022-12-03T07:18:10.375Z,49.30
2022-12-03T07:20:36.965Z,47.42
2022-12-03T07:23:03.701Z,48.15
2022-12-03T07:25:30.511Z,51.70
2022-12-03T07:27:57.121Z,44.42
2022-12-03T07:30:25.512Z,48.45
2022-12-03T07:32:52.070Z,48.97
2022-12-03T07:35:18.666Z,46.08
2022-12-03T07:37:45.330Z,47.25
2022-12-03T07:40:12.311Z,49.92
2022-12-03T07:42:38.904Z,54.80
2022-12-03T07:45:05.981Z,48.03
2022-12-03T07:47:32.617Z,52.60
2022-12-03T07:49:59.183Z,55.22
2022-12-03T07:52:25.802Z,50.35
2022-12-03T07:54:52.612Z,51.80
2022-12-03T07:57:19.373Z,53.13
2022-12-03T07:59:45.953Z,51.72
2022-12-03T08:02:16.843Z,55.08
2022-12-03T08:04:47.551Z,50.03
2022-12-03T08:07:14.169Z,52.03
2022-12-03T08:09:40.955Z,50.97
2022-12-03T08:12:16.452Z,52.65
2022-12-03T08:14:43.486Z,55.88
2022-12-03T08:17:12.359Z,58.70
2022-12-03T08:19:38.999Z,56.08
2022-12-03T08:22:13.511Z,56.65
2022-12-03T08:24:40.344Z,63.38
2022-12-03T08:27:19.778Z,55.95
2022-12-03T08:29:46.406Z,48.97
2022-12-03T08:32:13.668Z,57.90
2022-12-03T08:34:44.341Z,54.38
2022-12-03T08:37:18.388Z,53.22
2022-12-03T08:39:46.965Z,51.08
2022-12-03T08:42:38.486Z,54.95
2022-12-03T08:45:29.629Z,53.33
2022-12-03T08:48:07.194Z,56.45
2022-12-03T08:50:38.064Z,56.38
2022-12-03T08:53:13.615Z,51.63
2022-12-03T08:55:46.255Z,50.75
2022-12-03T08:58:46.638Z,45.22
2022-12-03T09:01:13.167Z,48.95
2022-12-03T09:03:48.348Z,47.05
2022-12-03T09:06:14.958Z,50.08
2022-12-03T09:08:41.528Z,49.38
2022-12-03T09:11:08.112Z,46.90
2022-12-03T09:13:34.778Z,51.60
2022-12-03T09:16:01.387Z,51.83
2022-12-03T09:18:27.978Z,50.42
2022-12-03T09:20:54.527Z,50.35
2022-12-03T09:23:21.124Z,48.22
2022-12-03T09:25:47.691Z,50.33
2022-12-03T09:28:14.237Z,45.30
2022-12-03T09:30:40.915Z,51.50
2022-12-03T09:33:07.599Z,49.13
2022-12-03T09:35:34.175Z,51.95
2022-12-03T09:38:00.772Z,45.15
2022-12-03T09:40:27.344Z,48.55
2022-12-03T09:42:53.993Z,45.92
2022-12-03T09:45:20.681Z,50.80
2022-12-03T09:47:48.928Z,49.13
2022-12-03T09:50:24.470Z,45.97
2022-12-03T09:52:57.605Z,47.90
2022-12-03T09:55:26.845Z,50.42
2022-12-03T09:57:54.380Z,52.53
2022-12-03T10:00:23.838Z,57.25
2022-12-03T10:02:52.102Z,57.58
2022-12-03T10:05:22.553Z,57.45
2022-12-03T10:07:50.112Z,56.33
2022-12-03T10:10:18.869Z,56.47
2022-12-03T10:12:45.626Z,55.95
2022-12-03T10:15:17.532Z,54.72
2022-12-03T10:17:45.018Z,55.13
2022-12-03T10:20:13.607Z,56.88
2022-12-03T10:22:40.377Z,58.20
2022-12-03T10:25:13.415Z,52.55
2022-12-03T10:27:43.098Z,55.22
2022-12-03T10:30:19.583Z,53.30
2022-12-03T10:32:49.086Z,55.38
2022-12-03T10:35:19.312Z,52.88
2022-12-03T10:38:07.014Z,55.85
2022-12-03T10:40:38.641Z,54.35
2022-12-03T10:43:24.394Z,55.78
2022-12-03T10:46:04.390Z,50.50
2022-12-03T10:48:33.667Z,52.33
2022-12-03T10:51:07.127Z,49.95
2022-12-03T10:53:36.202Z,58.60
2022-12-03T10:56:05.217Z,49.33
2022-12-03T10:58:37.050Z,52.88
2022-12-03T11:01:13.151Z,50.45
2022-12-03T11:03:39.885Z,51.40
2022-12-03T11:06:06.782Z,56.58
2022-12-03T11:08:36.827Z,56.47
2022-12-03T11:11:06.131Z,54.97
2022-12-03T11:13:32.632Z,50.33
2022-12-03T11:16:03.354Z,49.35
2022-12-03T11:18:50.208Z,50.60
2022-12-03T11:21:17.529Z,50.55
2022-12-03T11:24:03.174Z,49.75
2022-12-03T11:26:29.653Z,53.13
2022-12-03T11:28:56.800Z,50.95
2022-12-03T11:31:44.479Z,55.03
2022-12-03T11:34:23.346Z,50.80
2022-12-03T11:37:11.422Z,51.65
2022-12-03T11:39:49.910Z,51.60
2022-12-03T11:42:25.632Z,47.65
2022-12-03T11:45:04.076Z,52.45
2022-12-03T11:48:00.901Z,52.22
2022-12-03T11:50:39.049Z,49.30
2022-12-03T11:53:17.409Z,51.40
2022-12-03T11:55:48.770Z,48.33
2022-12-03T11:58:17.601Z,51.15
2022-12-03T12:00:52.407Z,52.88
2022-12-03T12:03:43.286Z,54.08
2022-12-03T12:06:12.278Z,51.55
2022-12-03T12:08:41.465Z,54.72
2022-12-03T12:11:27.262Z,56.88
2022-12-03T12:14:01.783Z,53.05
2022-12-03T12:16:50.827Z,54.63
2022-12-03T12:19:27.465Z,51.95
2022-12-03T12:21:54.798Z,57.97
2022-12-03T12:24:40.096Z,49.78
2022-12-03T12:27:08.652Z,50.85
2022-12-03T12:29:36.435Z,57.72
2022-12-03T12:32:13.209Z,53.85
2022-12-03T12:34:41.411Z,54.08
2022-12-03T12:37:35.676Z,53.50
2022-12-03T12:40:11.803Z,56.95
2022-12-03T12:42:44.574Z,51.30
2022-12-03T12:45:16.292Z,55.70
2022-12-03T12:47:47.838Z,57.25
2022-12-03T12:50:16.482Z,52.20
2022-12-03T12:52:54.643Z,57.42
2022-12-03T12:55:23.020Z,53.40
2022-12-03T12:57:50.279Z,52.30
2022-12-03T13:00:19.803Z,56.85
2022-12-03T13:02:53.064Z,62.28
2022-12-03T13:05:19.779Z,53.55
2022-12-03T13:07:46.616Z,49.72
2022-12-03T13:10:34.963Z,51.50
2022-12-03T13:13:43.646Z,54.10
2022-12-03T13:16:20.318Z,52.55
2022-12-03T13:18:55.001Z,51.45
2022-12-03T13:21:25.870Z,54.63
2022-12-03T13:23:55.838Z,53.50
2022-12-03T13:26:37.646Z,55.50
2022-12-03T13:29:16.754Z,54.67
2022-12-03T13:31:50.365Z,60.45
2022-12-03T13:36:50.560Z,50.53
2022-12-03T13:39:29.667Z,55.45
2022-12-03T13:42:15.889Z,58.83
2022-12-03T13:44:47.691Z,55.85
2022-12-03T13:47:16.529Z,53.47
2022-12-03T13:49:49.817Z,66.28
2022-12-03T13:52:20.033Z,63.38
2022-12-03T13:54:52.585Z,58.10
2022-12-03T13:57:19.428Z,62.88
2022-12-03T13:59:46.010Z,60.35
2022-12-03T14:02:12.969Z,61.35
2022-12-03T14:04:40.300Z,59.40
2022-12-03T14:07:06.877Z,56.50
2022-12-03T14:09:33.444Z,58.58
2022-12-03T14:12:18.643Z,61.20
2022-12-03T14:14:45.799Z,59.63
2022-12-03T14:17:12.464Z,55.03
2022-12-03T14:19:39.095Z,56.80
2022-12-03T14:22:07.996Z,55.35
2022-12-03T14:24:34.734Z,56.72
2022-12-03T14:27:01.650Z,50.15
2022-12-03T14:29:28.221Z,50.67
2022-12-03T14:31:54.941Z,49.42
2022-12-03T14:34:21.664Z,55.28
2022-12-03T14:36:48.257Z,52.15
2022-12-03T14:39:14.842Z,50.90
2022-12-03T14:41:59.997Z,56.75
2022-12-03T14:44:26.590Z,55.72
2022-12-03T14:46:56.991Z,58.00
2022-12-03T14:49:24.221Z,54.08
2022-12-03T14:51:50.790Z,55.83
2022-12-03T14:54:17.415Z,56.42
2022-12-03T14:56:43.987Z,58.60
2022-12-03T14:59:10.812Z,51.13
2022-12-03T15:01:37.531Z,51.72
2022-12-03T15:04:04.223Z,48.85
2022-12-03T15:06:30.809Z,53.67
2022-12-03T15:08:57.400Z,53.00
2022-12-03T15:11:24.013Z,55.00
2022-12-03T15:13:50.577Z,50.90
2022-12-03T15:16:17.241Z,49.33
2022-12-03T15:18:45.451Z,60.72
2022-12-03T15:21:12.037Z,53.15
2022-12-03T15:23:38.854Z,57.63
2022-12-03T15:26:05.581Z,55.50
2022-12-03T15:28:32.156Z,47.53
2022-12-03T15:30:58.881Z,44.50
2022-12-03T15:33:25.754Z,45.88
2022-12-03T15:35:52.353Z,46.05
2022-12-03T15:38:19.318Z,46.60
2022-12-03T15:40:46.000Z,47.28
2022-12-03T15:43:12.658Z,50.97
2022-12-03T15:45:39.269Z,44.17
2022-12-03T15:48:06.078Z,46.97
2022-12-03T15:50:38.480Z,47.88
2022-12-03T15:53:08.728Z,47.00
2022-12-03T15:55:35.278Z,43.88
2022-12-03T15:58:01.888Z,42.72
2022-12-03T16:00:28.445Z,42.65
2022-12-03T16:02:55.042Z,42.78
2022-12-03T16:05:21.716Z,45.67
2022-12-03T16:07:48.352Z,45.97
2022-12-03T16:10:17.522Z,44.67
2022-12-03T16:12:44.107Z,43.63
2022-12-03T16:15:10.827Z,43.88
2022-12-03T16:17:37.418Z,43.33
2022-12-03T16:20:04.629Z,44.05
2022-12-03T16:22:31.212Z,45.70
2022-12-03T16:24:57.787Z,46.78
2022-12-03T16:27:26.019Z,42.88
2022-12-03T16:29:53.173Z,42.33
2022-12-03T16:32:20.110Z,43.70
2022-12-03T16:34:46.672Z,46.78
2022-12-03T16:37:13.466Z,43.97
2022-12-03T16:39:46.952Z,43.00
2022-12-03T16:42:17.152Z,43.40
2022-12-03T16:44:59.395Z,42.30
2022-12-03T16:47:29.411Z,43.05
2022-12-03T16:49:58.818Z,40.30
2022-12-03T16:52:26.772Z,47.22
2022-12-03T16:54:53.345Z,42.17
2022-12-03T16:57:19.890Z,41.38
2022-12-03T16:59:46.547Z,41.53
2022-12-03T17:02:13.657Z,41.53
2022-12-03T17:04:40.516Z,40.22
2022-12-03T17:07:07.076Z,60.65
2022-12-03T17:09:33.627Z,39.33
2022-12-03T17:12:00.261Z,39.85
2022-12-03T17:14:32.883Z,35.80
2022-12-03T17:17:00.049Z,37.22
2022-12-03T17:19:26.702Z,35.15
2022-12-03T17:21:54.207Z,39.25
2022-12-03T17:24:21.571Z,38.70
2022-12-03T17:26:48.368Z,39.00
2022-12-03T17:29:15.044Z,40.03
2022-12-03T17:31:42.752Z,37.97
2022-12-03T17:34:09.952Z,40.67
2022-12-03T17:36:36.676Z,45.03
2022-12-03T17:39:03.561Z,39.67
2022-12-03T17:41:30.109Z,41.03
2022-12-03T17:43:56.662Z,45.72
2022-12-03T17:46:23.369Z,48.95
2022-12-03T17:48:50.070Z,46.67
2022-12-03T17:51:16.681Z,48.33
2022-12-03T17:53:43.246Z,50.42
2022-12-03T17:56:09.829Z,53.05
2022-12-03T17:58:36.402Z,52.28
2022-12-03T18:01:03.564Z,45.97
2022-12-03T18:03:30.893Z,49.35
2022-12-03T18:05:57.516Z,43.67
2022-12-03T18:08:24.232Z,46.53
2022-12-03T18:10:50.905Z,46.72
2022-12-03T18:13:17.465Z,43.88
2022-12-03T18:15:44.113Z,48.60
2022-12-03T18:18:10.912Z,41.78
2022-12-03T18:20:37.590Z,41.25
2022-12-03T18:23:04.356Z,44.10
2022-12-03T18:25:31.034Z,46.42
2022-12-03T18:27:57.804Z,43.78
2022-12-03T18:30:24.543Z,47.38
2022-12-03T18:32:51.138Z,46.65
2022-12-03T18:35:18.054Z,45.60
2022-12-03T18:37:44.752Z,46.83
2022-12-03T18:40:24.343Z,48.05
2022-12-03T18:42:50.981Z,47.10
2022-12-03T18:45:17.718Z,49.40
2022-12-03T18:47:45.007Z,45.30
2022-12-03T18:50:12.086Z,46.40
2022-12-03T18:52:38.678Z,47.28
2022-12-03T18:55:06.373Z,53.70
2022-12-03T18:57:32.951Z,47.72
2022-12-03T18:59:59.600Z,51.53
2022-12-03T19:02:54.365Z,66.78
2022-12-03T19:05:12.748Z,43.13
2022-12-03T19:07:39.380Z,52.85
2022-12-03T19:10:06.800Z,47.80
2022-12-03T19:12:33.716Z,51.13
2022-12-03T19:15:00.474Z,52.15
2022-12-03T19:17:27.532Z,57.65
2022-12-03T19:19:54.994Z,51.28
2022-12-03T19:22:21.973Z,42.70
2022-12-03T19:24:48.605Z,50.83
2022-12-03T19:27:15.583Z,48.22
2022-12-03T19:29:42.310Z,49.88
2022-12-03T19:32:09.091Z,50.03
2022-12-03T19:34:36.011Z,47.50
2022-12-03T19:37:02.665Z,49.42
2022-12-03T19:39:29.283Z,50.65
2022-12-03T19:41:55.839Z,51.03
2022-12-03T19:44:22.394Z,52.53
2022-12-03T19:46:49.487Z,53.83
2022-12-03T19:49:21.239Z,45.05
2022-12-03T19:51:48.120Z,45.60
2022-12-03T19:54:15.298Z,51.67
2022-12-03T19:56:42.099Z,48.17
2022-12-03T19:59:10.407Z,51.78
2022-12-03T20:01:40.401Z,53.20
2022-12-03T20:04:07.719Z,53.15
2022-12-03T20:06:37.614Z,48.63
2022-12-03T20:09:11.364Z,50.30
2022-12-03T20:14:06.931Z,53.05
2022-12-03T20:16:34.164Z,56.05
2022-12-03T20:19:03.400Z,55.30
2022-12-03T20:21:32.341Z,52.78
2022-12-03T20:23:59.493Z,52.70
2022-12-03T20:26:26.437Z,51.83
2022-12-03T20:28:54.472Z,53.00
2022-12-03T20:31:23.037Z,54.53
2022-12-03T20:33:52.180Z,51.88
2022-12-03T20:36:20.918Z,52.90
2022-12-03T20:38:47.624Z,52.80
2022-12-03T20:41:18.391Z,57.78
2022-12-03T20:43:45.518Z,54.60
2022-12-03T20:46:20.599Z,55.08
2022-12-03T20:48:47.652Z,52.80
2022-12-03T20:51:19.543Z,55.47
2022-12-03T20:53:46.568Z,50.97
2022-12-03T20:56:21.789Z,52.63
2022-12-03T20:58:49.071Z,62.53
2022-12-03T21:01:18.765Z,54.03
2022-12-03T21:03:45.973Z,58.63
2022-12-03T21:06:12.990Z,56.05
2022-12-03T21:08:42.147Z,53.30
2022-12-03T21:11:15.678Z,58.58
2022-12-03T21:13:43.933Z,56.20
2022-12-03T21:16:16.829Z,54.92
2022-12-03T21:18:43.803Z,56.13
2022-12-03T21:21:11.858Z,55.58
2022-12-03T21:23:38.592Z,58.47
2022-12-03T21:26:10.641Z,54.03
2022-12-03T21:28:38.489Z,55.25
2022-12-03T21:31:07.710Z,54.42
2022-12-03T21:33:34.489Z,52.83
2022-12-03T21:36:01.526Z,50.13
2022-12-03T21:38:29.160Z,54.38
2022-12-03T21:40:56.702Z,59.90
2022-12-03T21:43:24.054Z,58.30
2022-12-03T21:45:50.987Z,56.33
2022-12-03T21:48:17.940Z,54.13
2022-12-03T21:50:44.932Z,59.97
2022-12-03T21:53:11.973Z,51.90
2022-12-03T21:55:40.383Z,51.40
2022-12-03T21:58:10.073Z,55.35
2022-12-03T22:00:36.672Z,66.05
2022-12-03T22:03:03.430Z,54.35
2022-12-03T22:05:31.128Z,53.22
2022-12-03T22:07:57.775Z,57.78
2022-12-03T22:10:24.461Z,52.53
2022-12-03T22:12:51.052Z,55.65
2022-12-03T22:15:19.341Z,59.10
2022-12-03T22:17:46.690Z,58.13
2022-12-03T22:20:13.598Z,54.88
2022-12-03T22:22:40.192Z,60.38
2022-12-03T22:25:07.094Z,65.38
2022-12-03T22:27:33.685Z,57.33
2022-12-03T22:30:00.247Z,59.90
2022-12-03T22:32:27.309Z,61.30
2022-12-03T22:34:54.014Z,58.88
2022-12-03T22:37:20.626Z,58.10
2022-12-03T22:39:47.243Z,62.03
2022-12-03T22:42:13.925Z,58.65
2022-12-03T22:44:40.481Z,56.03
2022-12-03T22:47:07.089Z,62.03
2022-12-03T22:49:33.637Z,56.13
2022-12-03T22:52:00.269Z,56.20
2022-12-03T22:54:26.863Z,57.35
2022-12-03T22:56:53.406Z,60.00
2022-12-03T22:59:20.005Z,56.17
2022-12-03T23:01:47.399Z,56.95
2022-12-03T23:04:14.122Z,60.45
2022-12-03T23:06:40.883Z,57.78
2022-12-03T23:09:08.261Z,57.05
2022-12-03T23:11:35.349Z,61.05
2022-12-03T23:14:02.165Z,56.60
2022-12-03T23:16:31.524Z,56.95
2022-12-03T23:18:59.581Z,57.13
2022-12-03T23:21:30.199Z,56.47
2022-12-03T23:24:01.867Z,58.08
2022-12-03T23:26:29.189Z,56.78
2022-12-03T23:28:56.225Z,55.88
2022-12-03T23:31:26.328Z,60.85
2022-12-03T23:33:53.416Z,63.05
2022-12-03T23:36:20.982Z,59.90
2022-12-03T23:38:47.848Z,61.47
2022-12-03T23:41:17.749Z,55.65
2022-12-03T23:43:44.518Z,57.42
2022-12-03T23:46:14.789Z,54.85
2022-12-03T23:48:42.021Z,63.28
2022-12-03T23:51:11.436Z,64.18
2022-12-03T23:53:39.165Z,56.55
2022-12-03T23:56:06.808Z,62.28
2022-12-03T23:58:33.998Z,58.10
